Time;durP1;ratioP1;P1;durP2;ratioP2;P2;SDS_P1;SDS_P2;PMS_P1;PMS_P2;Temp;Humidity;BMP_temperature;BMP_pressure;BME280_temperature;BME280_humidity;BME280_pressure;Samples;Min_cycle;Max_cycle;Signal;HPM_P1;HPM_P2
2023/09/22 00:00:14;;;;;;;3.95;0.88;;;14.40;99.90;;;13.70;100.00;96304.38;4980934;28;20090;-75
2023/09/22 00:02:45;;;;;;;1.83;0.70;;;14.40;99.90;;;13.67;100.00;96302.81;4981423;28;20051;-76
2023/09/22 00:05:13;;;;;;;3.47;0.70;;;14.40;99.90;;;13.75;100.00;96305.69;4981238;28;20054;-76
2023/09/22 00:07:43;;;;;;;2.38;0.88;;;14.40;99.90;;;13.51;100.00;96320.56;4980530;28;20054;-75
2023/09/22 00:10:12;;;;;;;4.35;0.50;;;14.20;99.90;;;13.48;100.00;96316.41;4967151;28;20047;-75
2023/09/22 00:12:41;;;;;;;2.45;0.80;;;14.20;99.90;;;13.39;100.00;96317.09;4983950;28;20155;-75
2023/09/22 00:15:10;;;;;;;2.78;0.55;;;14.20;99.90;;;13.34;100.00;96329.63;4982196;28;20050;-76
2023/09/22 00:17:38;;;;;;;2.53;0.80;;;14.10;99.90;;;13.36;100.00;96322.53;4983259;28;20486;-75
2023/09/22 00:20:08;;;;;;;2.58;0.70;;;14.00;99.90;;;13.32;100.00;96327.16;4980019;28;20166;-75
2023/09/22 00:22:36;;;;;;;2.28;0.80;;;14.00;99.90;;;13.34;100.00;96340.03;4982907;28;20055;-75
2023/09/22 00:25:04;;;;;;;4.80;0.75;;;14.00;99.90;;;13.30;100.00;96339.47;4995562;28;20529;-75
2023/09/22 00:27:31;;;;;;;3.28;0.68;;;13.90;99.90;;;13.38;100.00;96331.88;4995508;28;20668;-75
2023/09/22 00:29:59;;;;;;;3.05;0.65;;;14.00;99.90;;;13.39;100.00;96332.75;4984358;28;20101;-75
2023/09/22 00:32:26;;;;;;;1.70;0.60;;;14.00;99.90;;;13.42;100.00;96337.72;4985594;28;20073;-75
2023/09/22 00:34:53;;;;;;;4.57;0.70;;;14.00;99.90;;;13.48;100.00;96352.91;4980553;28;20061;-75
2023/09/22 00:37:22;;;;;;;3.10;0.70;;;14.00;99.90;;;13.56;100.00;96347.13;4997938;28;20050;-75
2023/09/22 00:39:50;;;;;;;4.25;0.75;;;14.10;99.90;;;13.55;100.00;96342.88;4986813;28;20137;-75
2023/09/22 00:42:17;;;;;;;3.78;0.75;;;14.10;99.90;;;13.57;100.00;96339.19;4983214;28;20046;-76
2023/09/22 00:44:44;;;;;;;1.70;0.70;;;14.10;99.90;;;13.45;100.00;96347.09;4982008;28;20094;-76
2023/09/22 00:47:13;;;;;;;2.25;0.70;;;14.00;99.90;;;13.49;100.00;96341.53;4982625;28;20601;-75
2023/09/22 00:49:48;;;;;;;3.42;0.88;;;14.00;99.90;;;13.48;100.00;96357.28;4980131;28;20453;-75
2023/09/22 00:52:18;;;;;;;5.10;0.90;;;14.00;99.90;;;13.44;100.00;96351.47;4985151;28;20100;-75
2023/09/22 00:54:48;;;;;;;2.88;0.85;;;14.00;99.90;;;13.46;100.00;96353.97;4986520;28;20046;-75
2023/09/22 00:57:17;;;;;;;2.63;1.05;;;14.00;99.90;;;13.37;100.00;96363.28;4982190;28;20532;-75
2023/09/22 00:59:46;;;;;;;2.95;0.90;;;13.90;99.90;;;13.44;100.00;96361.91;4996652;28;20047;-75
2023/09/22 01:02:13;;;;;;;3.78;0.90;;;14.00;99.90;;;13.36;100.00;96365.06;4983605;28;20069;-75
2023/09/22 01:04:41;;;;;;;6.28;1.13;;;14.00;99.90;;;13.44;100.00;96356.69;4985554;28;20061;-75
2023/09/22 01:07:09;;;;;;;2.53;1.02;;;14.00;99.90;;;13.42;100.00;96344.72;4982455;28;20050;-75
2023/09/22 01:09:37;;;;;;;4.63;1.13;;;13.90;99.90;;;13.31;100.00;96346.31;4984789;28;20050;-76
2023/09/22 01:12:05;;;;;;;3.10;1.10;;;14.00;99.90;;;13.33;100.00;96338.41;4981699;28;20047;-75
2023/09/22 01:14:32;;;;;;;5.15;1.08;;;13.90;99.90;;;13.37;100.00;96347.66;4983330;28;20053;-75
2023/09/22 01:16:59;;;;;;;3.15;1.17;;;13.90;99.90;;;13.37;100.00;96335.44;4983946;28;20050;-75
2023/09/22 01:19:26;;;;;;;2.83;1.30;;;13.90;99.90;;;13.25;100.00;96349.38;4982517;28;20043;-76
2023/09/22 01:21:54;;;;;;;3.67;1.00;;;13.90;99.90;;;13.37;100.00;96345.06;4982573;28;20068;-75
2023/09/22 01:24:24;;;;;;;2.95;1.02;;;13.90;99.90;;;13.32;100.00;96344.53;4984150;28;20042;-75
2023/09/22 01:26:57;;;;;;;2.72;0.90;;;13.80;99.90;;;13.28;100.00;96337.91;4985053;28;20050;-75
2023/09/22 01:29:24;;;;;;;5.30;1.23;;;13.90;99.90;;;13.23;100.00;96337.34;4999293;28;20521;-75
2023/09/22 01:31:51;;;;;;;3.92;1.25;;;13.90;99.90;;;13.25;100.00;96343.28;4970026;28;20174;-75
2023/09/22 01:34:20;;;;;;;4.10;0.98;;;13.80;99.90;;;13.26;100.00;96339.75;4984416;28;20469;-75
2023/09/22 01:36:47;;;;;;;4.30;1.00;;;13.80;99.90;;;13.34;100.00;96340.91;4985021;28;20121;-75
2023/09/22 01:39:16;;;;;;;1.88;0.98;;;13.80;99.90;;;13.27;100.00;96344.00;4982760;28;20451;-76
2023/09/22 01:41:43;;;;;;;1.80;0.90;;;13.80;99.90;;;13.26;100.00;96339.75;4985844;28;20132;-75
2023/09/22 01:44:11;;;;;;;2.78;1.00;;;13.80;99.90;;;13.32;100.00;96349.75;4982224;28;20129;-75
2023/09/22 01:46:38;;;;;;;4.63;0.90;;;13.80;99.90;;;13.34;100.00;96342.66;4966130;28;20121;-75
2023/09/22 01:49:05;;;;;;;2.22;1.00;;;13.90;99.90;;;13.37;100.00;96334.63;4984015;28;20064;-75
2023/09/22 01:51:33;;;;;;;2.50;0.73;;;13.90;99.90;;;13.26;100.00;96321.53;4981267;28;20054;-75
2023/09/22 01:54:00;;;;;;;2.75;0.93;;;14.00;99.90;;;13.18;100.00;96312.50;4984191;28;20085;-75
2023/09/22 01:56:27;;;;;;;2.88;1.00;;;13.90;99.90;;;13.15;100.00;96310.09;4980063;28;20090;-76
2023/09/22 01:58:54;;;;;;;4.95;0.95;;;13.90;99.90;;;13.20;100.00;96309.75;4982950;28;20137;-75
2023/09/22 02:01:22;;;;;;;5.88;0.80;;;13.80;99.90;;;13.22;100.00;96309.66;4982887;28;20050;-76
2023/09/22 02:03:51;;;;;;;1.75;0.80;;;13.90;99.90;;;13.25;100.00;96307.66;4983629;28;20562;-76
2023/09/22 02:06:19;;;;;;;1.58;0.80;;;13.90;99.90;;;13.32;100.00;96300.22;4981096;28;20046;-75
2023/09/22 02:08:47;;;;;;;2.80;1.00;;;13.90;99.90;;;13.35;100.00;96295.63;4997650;28;20129;-75
2023/09/22 02:11:15;;;;;;;3.65;0.93;;;14.00;99.90;;;13.28;100.00;96298.81;4968928;28;20164;-75
2023/09/22 02:13:42;;;;;;;6.18;1.10;;;14.00;99.90;;;13.29;100.00;96290.03;4968536;28;20418;-76
2023/09/22 02:16:09;;;;;;;2.85;0.85;;;14.00;99.90;;;13.32;100.00;96284.59;4969343;28;20050;-75
2023/09/22 02:18:39;;;;;;;1.50;0.60;;;14.00;99.90;;;13.27;100.00;96297.13;4999347;28;20046;-75
2023/09/22 02:21:07;;;;;;;3.88;0.80;;;14.00;99.90;;;13.13;100.00;96298.13;4986384;28;20077;-76
2023/09/22 02:23:35;;;;;;;2.17;0.80;;;13.90;99.90;;;13.18;100.00;96307.28;4970004;28;20054;-76
2023/09/22 02:26:07;;;;;;;4.85;0.80;;;13.90;99.90;;;13.30;100.00;96304.75;4983666;28;20050;-76
2023/09/22 02:28:35;;;;;;;7.40;0.80;;;14.00;99.90;;;13.34;100.00;96291.38;4983573;28;20136;-75
2023/09/22 02:31:02;;;;;;;3.50;1.10;;;14.00;99.90;;;13.30;100.00;96291.72;4981675;28;20062;-75
2023/09/22 02:33:30;;;;;;;2.47;0.60;;;14.00;99.90;;;13.19;100.00;96282.06;4981249;28;20467;-75
2023/09/22 02:35:59;;;;;;;2.78;1.27;;;14.00;99.90;;;13.16;100.00;96292.72;4983559;28;20086;-75
2023/09/22 02:38:26;;;;;;;2.95;0.70;;;13.90;99.90;;;13.09;100.00;96276.69;4986802;28;20133;-75
2023/09/22 02:40:53;;;;;;;2.33;0.80;;;13.80;99.90;;;13.05;100.00;96270.03;4982046;28;20157;-75
2023/09/22 02:43:20;;;;;;;2.08;0.50;;;13.80;99.90;;;13.04;100.00;96291.00;4967441;28;20046;-75
2023/09/22 02:45:48;;;;;;;1.48;0.60;;;13.70;99.90;;;13.13;100.00;96317.19;4979467;28;20418;-75
2023/09/22 02:48:15;;;;;;;3.67;0.77;;;13.80;99.90;;;13.10;100.00;96308.78;4968439;28;20521;-75
2023/09/22 02:50:43;;;;;;;1.80;0.65;;;13.80;99.90;;;13.17;100.00;96317.81;4981986;28;20061;-75
2023/09/22 02:53:10;;;;;;;3.65;0.70;;;13.70;99.90;;;13.21;100.00;96324.47;4982528;28;20057;-75
2023/09/22 02:55:37;;;;;;;5.95;0.80;;;13.80;99.90;;;13.14;100.00;96326.69;4980188;28;20062;-75
2023/09/22 02:58:04;;;;;;;2.50;0.65;;;13.80;99.90;;;13.24;100.00;96326.00;4980128;28;20054;-75
2023/09/22 03:00:32;;;;;;;5.00;0.88;;;13.90;99.90;;;13.16;100.00;96318.75;4971445;28;20074;-75
2023/09/22 03:03:00;;;;;;;2.65;0.60;;;13.90;99.90;;;13.18;100.00;96303.81;4986100;28;20046;-75
2023/09/22 03:05:28;;;;;;;1.35;0.50;;;13.90;99.90;;;13.10;100.00;96296.59;4984565;28;20058;-75
2023/09/22 03:07:55;;;;;;;7.15;0.93;;;13.80;99.90;;;13.11;100.00;96286.97;5000648;28;20530;-75
2023/09/22 03:10:22;;;;;;;2.70;0.60;;;13.80;99.90;;;13.10;100.00;96296.59;4984614;28;20073;-75
2023/09/22 03:12:53;;;;;;;2.03;0.68;;;13.80;99.90;;;13.13;100.00;96321.56;4986839;28;20138;-75
2023/09/22 03:15:20;;;;;;;3.00;0.88;;;13.70;99.90;;;13.13;100.00;96301.56;4986941;28;20062;-75
2023/09/22 03:17:48;;;;;;;1.48;0.50;;;13.70;99.90;;;13.10;100.00;96285.34;4986618;28;20534;-75
2023/09/22 03:20:17;;;;;;;2.33;0.50;;;13.70;99.90;;;13.09;100.00;96291.47;4985175;28;20049;-75
2023/09/22 03:22:44;;;;;;;2.08;0.60;;;13.60;99.90;;;13.09;100.00;96281.06;4987070;28;20046;-76
2023/09/22 03:25:12;;;;;;;1.63;0.60;;;13.70;99.90;;;13.17;100.00;96289.97;4987106;28;20051;-75
2023/09/22 03:27:39;;;;;;;3.10;0.60;;;13.70;99.90;;;13.12;100.00;96293.88;4986608;28;20046;-75
2023/09/22 03:30:09;;;;;;;1.92;0.60;;;13.60;99.90;;;13.08;100.00;96293.25;4986986;28;20081;-75
2023/09/22 03:32:38;;;;;;;1.48;0.50;;;13.60;99.90;;;13.05;100.00;96308.28;4980650;28;20042;-75
2023/09/22 03:35:07;;;;;;;2.10;0.73;;;13.60;99.90;;;13.03;100.00;96329.25;4985462;28;20062;-76
2023/09/22 03:37:35;;;;;;;1.60;0.50;;;13.60;99.90;;;13.00;100.00;96332.06;4986165;28;20082;-75
2023/09/22 03:40:13;;;;;;;2.17;0.50;;;13.60;99.90;;;13.11;100.00;96339.94;4986896;28;20058;-75
2023/09/22 03:42:41;;;;;;;1.38;0.57;;;13.60;99.90;;;13.02;100.00;96339.75;4987401;28;20050;-75
2023/09/22 03:45:10;;;;;;;1.35;0.50;;;13.60;99.90;;;13.05;100.00;96345.59;4985083;28;20514;-76
2023/09/22 03:47:41;;;;;;;2.53;0.70;;;13.70;99.90;;;13.07;100.00;96335.03;4987107;28;20058;-75
2023/09/22 03:50:10;;;;;;;5.32;0.52;;;13.70;99.90;;;13.11;100.00;96345.16;4984619;28;20054;-75
2023/09/22 03:52:40;;;;;;;3.05;0.50;;;13.70;99.90;;;13.15;100.00;96351.78;4971749;28;20055;-76
2023/09/22 03:55:09;;;;;;;2.67;0.60;;;13.70;99.90;;;13.19;100.00;96327.16;4985339;28;20058;-75
2023/09/22 03:57:36;;;;;;;3.17;0.68;;;13.80;99.90;;;13.15;100.00;96325.72;4987746;28;20054;-75
2023/09/22 04:00:17;;;;;;;0.80;0.43;;;13.80;99.90;;;13.15;100.00;96319.69;4984781;28;20479;-75
2023/09/22 04:02:46;;;;;;;4.70;0.57;;;13.80;99.90;;;13.17;100.00;96321.25;4982657;28;20773;-75
2023/09/22 04:05:13;;;;;;;3.25;1.05;;;13.70;99.90;;;13.11;100.00;96316.50;4981658;28;20577;-75
2023/09/22 04:07:43;;;;;;;1.20;0.50;;;13.70;99.90;;;13.22;100.00;96322.69;4985072;28;20046;-75
2023/09/22 04:10:10;;;;;;;1.48;0.57;;;13.80;99.90;;;13.25;100.00;96331.13;4985411;28;20054;-75
2023/09/22 04:12:37;;;;;;;2.10;0.70;;;13.90;99.90;;;13.17;100.00;96334.28;4985670;28;20058;-75
2023/09/22 04:15:06;;;;;;;2.47;0.60;;;13.80;99.90;;;13.17;100.00;96339.47;4983867;28;20106;-75
2023/09/22 04:17:35;;;;;;;2.80;0.57;;;13.90;99.90;;;13.25;100.00;96349.38;4970605;28;20128;-75
2023/09/22 04:20:07;;;;;;;2.58;0.70;;;13.90;99.90;;;13.16;100.00;96348.25;4986145;28;20054;-75
2023/09/22 04:22:36;;;;;;;3.92;0.70;;;13.90;99.90;;;13.15;100.00;96353.56;4998119;28;20046;-75
2023/09/22 04:25:11;;;;;;;1.02;0.50;;;13.80;99.90;;;13.09;100.00;96361.81;4980612;28;20046;-75
2023/09/22 04:27:44;;;;;;;2.55;0.60;;;13.80;99.90;;;13.17;100.00;96360.31;4985737;28;20136;-75
2023/09/22 04:30:15;;;;;;;2.83;0.57;;;13.80;99.90;;;13.14;100.00;96365.75;4998273;28;20450;-75
2023/09/22 04:32:44;;;;;;;0.98;0.57;;;13.80;99.90;;;13.25;100.00;96358.94;4995375;28;20119;-75
2023/09/22 04:35:12;;;;;;;0.90;0.50;;;13.90;99.90;;;13.12;100.00;96346.81;4984820;28;20590;-75
2023/09/22 04:37:40;;;;;;;6.68;0.70;;;13.80;99.90;;;13.14;100.00;96359.72;4983768;28;20054;-75
2023/09/22 04:40:19;;;;;;;2.63;0.60;;;13.80;99.90;;;13.21;100.00;96357.50;4985860;28;20058;-75
2023/09/22 04:42:48;;;;;;;2.53;0.63;;;13.80;99.90;;;13.22;100.00;96343.53;4983610;28;20542;-75
2023/09/22 04:45:21;;;;;;;1.10;0.57;;;13.80;99.90;;;13.19;100.00;96355.84;4982804;28;20046;-76
2023/09/22 04:47:51;;;;;;;1.95;0.57;;;13.80;99.90;;;13.15;100.00;96369.19;4984092;28;20049;-75
2023/09/22 04:50:21;;;;;;;2.42;0.50;;;13.70;99.90;;;13.23;100.00;96359.06;4984964;28;20039;-75
2023/09/22 04:52:49;;;;;;;2.28;0.68;;;13.80;99.90;;;13.19;100.00;96352.41;4981775;28;20062;-75
2023/09/22 04:55:20;;;;;;;2.22;0.60;;;13.70;99.90;;;13.13;100.00;96351.06;4984223;28;20090;-75
2023/09/22 04:57:48;;;;;;;1.42;0.60;;;13.70;99.90;;;13.10;100.00;96351.28;4997264;28;20058;-76
2023/09/22 05:00:16;;;;;;;1.80;0.82;;;13.70;99.90;;;13.17;100.00;96354.28;4983756;28;20057;-75
2023/09/22 05:02:43;;;;;;;2.70;0.77;;;13.60;99.90;;;13.17;100.00;96362.09;4971447;28;20100;-75
2023/09/22 05:05:12;;;;;;;4.00;0.70;;;13.60;99.90;;;13.11;100.00;96365.16;4969095;28;20058;-75
2023/09/22 05:07:39;;;;;;;1.30;0.60;;;13.60;99.90;;;13.10;100.00;96373.91;4996812;28;20047;-75
2023/09/22 05:10:07;;;;;;;2.30;0.70;;;13.60;99.90;;;13.01;100.00;96374.56;4996355;28;20611;-75
2023/09/22 05:12:35;;;;;;;2.30;0.50;;;13.60;99.90;;;13.12;100.00;96385.06;4980188;28;20046;-75
2023/09/22 05:15:04;;;;;;;1.35;0.50;;;13.50;99.90;;;13.08;100.00;96388.81;4983820;28;20057;-75
2023/09/22 05:17:34;;;;;;;1.27;0.60;;;13.50;99.90;;;13.01;100.00;96375.41;4999061;28;20426;-75
2023/09/22 05:20:11;;;;;;;1.52;0.70;;;13.50;99.90;;;13.01;100.00;96379.78;4984431;28;20086;-76
2023/09/22 05:22:40;;;;;;;1.88;0.70;;;13.60;99.90;;;12.96;100.00;96393.13;4986474;28;20556;-75
2023/09/22 05:25:08;;;;;;;2.15;0.70;;;13.60;99.90;;;12.98;100.00;96405.09;4982770;28;20053;-75
2023/09/22 05:27:35;;;;;;;1.63;0.68;;;13.50;99.90;;;12.92;100.00;96413.34;4982241;28;20141;-75
2023/09/22 05:30:06;;;;;;;2.83;0.63;;;13.50;99.90;;;13.03;100.00;96412.59;4985007;28;20054;-75
2023/09/22 05:32:34;;;;;;;6.57;0.80;;;13.50;99.90;;;12.98;100.00;96388.66;4985266;28;20073;-75
2023/09/22 05:35:02;;;;;;;2.28;0.80;;;13.50;99.90;;;12.98;100.00;96404.28;4983673;28;20503;-75
2023/09/22 05:37:31;;;;;;;2.55;0.63;;;13.50;99.90;;;12.95;100.00;96400.13;4985459;28;20579;-75
2023/09/22 05:39:58;;;;;;;4.63;0.90;;;13.50;99.90;;;13.01;100.00;96408.44;4986234;28;20113;-75
2023/09/22 05:42:26;;;;;;;2.58;0.75;;;13.60;99.90;;;12.95;100.00;96401.88;4981696;28;20510;-75
2023/09/22 05:44:53;;;;;;;4.05;0.80;;;13.50;99.90;;;12.96;100.00;96404.38;4985693;28;20466;-75
2023/09/22 05:47:20;;;;;;;1.73;0.73;;;13.50;99.90;;;13.02;100.00;96415.28;4983148;28;20141;-75
2023/09/22 05:49:49;;;;;;;2.67;0.80;;;13.50;99.90;;;12.93;100.00;96430.66;4982437;28;20055;-75
2023/09/22 05:52:16;;;;;;;1.75;0.70;;;13.50;99.90;;;12.95;100.00;96438.34;4982886;28;20054;-75
2023/09/22 05:54:47;;;;;;;2.45;0.80;;;13.50;99.90;;;12.94;100.00;96466.16;4984716;28;20094;-75
2023/09/22 05:57:15;;;;;;;2.15;0.80;;;13.50;99.90;;;12.97;100.00;96467.72;4983655;28;20101;-75
2023/09/22 05:59:43;;;;;;;7.00;0.70;;;13.50;99.90;;;13.07;100.00;96453.13;4985610;28;20477;-75
2023/09/22 06:02:11;;;;;;;2.13;0.70;;;13.50;99.90;;;13.00;100.00;96449.28;4969623;28;20050;-75
2023/09/22 06:04:38;;;;;;;5.35;1.60;;;13.50;99.90;;;12.91;100.00;96444.72;4983602;28;20086;-75
2023/09/22 06:07:12;;;;;;;2.05;0.55;;;13.50;99.90;;;12.93;100.00;96435.00;4982084;28;20050;-75
2023/09/22 06:09:39;;;;;;;1.88;0.60;;;13.50;99.90;;;13.01;100.00;96453.53;4979918;28;20069;-75
2023/09/22 06:12:07;;;;;;;5.18;0.80;;;13.50;99.90;;;12.96;100.00;96451.25;4983125;28;20427;-75
2023/09/22 06:14:34;;;;;;;6.43;0.70;;;13.50;99.90;;;12.98;100.00;96448.56;4995695;28;20050;-75
2023/09/22 06:17:02;;;;;;;2.05;0.60;;;13.50;99.90;;;12.94;100.00;96455.75;4979168;28;20584;-75
2023/09/22 06:19:29;;;;;;;3.35;0.70;;;13.50;99.90;;;12.85;100.00;96459.00;4985211;28;20154;-75
2023/09/22 06:21:57;;;;;;;3.17;0.75;;;13.50;99.90;;;12.86;100.00;96470.22;4982166;28;20129;-75
2023/09/22 06:24:24;;;;;;;3.22;1.13;;;13.50;99.90;;;13.00;100.00;96470.13;4984457;28;20154;-75
2023/09/22 06:26:53;;;;;;;1.98;0.85;;;13.50;99.90;;;13.01;100.00;96460.53;4997475;28;20089;-75
2023/09/22 06:29:20;;;;;;;3.00;0.98;;;13.50;99.90;;;13.02;100.00;96468.22;4982328;28;20636;-74
2023/09/22 06:31:47;;;;;;;3.53;0.75;;;13.60;99.90;;;12.92;100.00;96475.84;4979713;28;20132;-75
2023/09/22 06:34:15;;;;;;;3.03;0.75;;;13.50;99.90;;;12.98;100.00;96472.81;4983591;28;20054;-75
2023/09/22 06:36:42;;;;;;;2.92;0.75;;;13.50;99.90;;;13.00;100.00;96474.47;4984953;28;20065;-75
2023/09/22 06:39:10;;;;;;;2.35;0.63;;;13.50;99.90;;;13.06;100.00;96474.88;4986962;28;20050;-75
2023/09/22 06:41:37;;;;;;;3.13;0.70;;;13.50;99.90;;;12.92;100.00;96488.88;4978413;28;20050;-75
2023/09/22 06:44:06;;;;;;;2.05;0.70;;;13.50;99.90;;;13.06;100.00;96493.13;5000727;28;20058;-75
2023/09/22 06:46:35;;;;;;;2.50;0.60;;;13.60;99.90;;;13.11;100.00;96479.78;4997321;28;20162;-75
2023/09/22 06:49:05;;;;;;;3.53;0.80;;;13.60;99.90;;;13.12;100.00;96478.84;4986402;28;20657;-74
2023/09/22 06:51:33;;;;;;;2.63;0.80;;;13.70;99.90;;;13.05;100.00;96488.03;5001476;28;20057;-75
2023/09/22 06:54:00;;;;;;;2.05;0.57;;;13.70;99.90;;;13.19;100.00;96500.91;4978843;28;20121;-75
2023/09/22 06:56:28;;;;;;;1.58;0.45;;;13.70;99.90;;;13.18;100.00;96494.88;4988902;28;20087;-75
2023/09/22 06:59:17;;;;;;;1.67;0.60;;;13.80;99.90;;;13.28;100.00;96494.28;4988155;28;20046;-75
2023/09/22 07:01:44;;;;;;;3.42;0.57;;;13.80;99.90;;;13.33;100.00;96487.78;4988238;28;20093;-75
2023/09/22 07:04:14;;;;;;;3.30;0.52;;;13.80;99.90;;;13.30;100.00;96501.03;4973297;28;20054;-75
2023/09/22 07:06:41;;;;;;;3.67;0.60;;;13.80;99.90;;;13.31;100.00;96486.22;4988745;28;20046;-75
2023/09/22 07:09:11;;;;;;;1.75;0.50;;;13.90;99.90;;;13.30;100.00;96488.00;4987400;28;20429;-75
2023/09/22 07:11:40;;;;;;;3.92;0.63;;;13.80;99.90;;;13.37;100.00;96477.97;4984224;28;20062;-75
2023/09/22 07:14:08;;;;;;;6.18;0.60;;;13.90;99.90;;;13.42;100.00;96472.44;4988315;28;20511;-75
2023/09/22 07:16:36;;;;;;;1.00;0.47;;;13.90;99.90;;;13.52;100.00;96484.69;4968598;28;20137;-75
2023/09/22 07:19:04;;;;;;;3.72;0.50;;;14.00;99.90;;;13.55;100.00;96481.03;4983468;28;20518;-75
2023/09/22 07:21:31;;;;;;;2.83;0.68;;;14.10;99.90;;;13.71;100.00;96488.59;4988074;28;20073;-76
2023/09/22 07:23:59;;;;;;;1.85;0.57;;;14.30;99.90;;;13.75;100.00;96490.00;5005304;28;20129;-75
2023/09/22 07:26:26;;;;;;;3.75;0.60;;;14.30;99.90;;;14.13;100.00;96481.97;4986660;28;20454;-76
2023/09/22 07:28:54;;;;;;;4.00;0.50;;;14.40;99.90;;;13.70;100.00;96495.56;4986664;28;20049;-75
2023/09/22 07:31:21;;;;;;;1.77;0.50;;;14.40;99.90;;;13.59;100.00;96493.75;4988765;28;20082;-75
2023/09/22 07:33:48;;;;;;;3.67;0.52;;;14.30;99.90;;;13.67;100.00;96508.81;4987660;28;20073;-75
2023/09/22 07:36:15;;;;;;;2.50;0.40;;;14.10;99.90;;;13.76;100.00;96510.78;4981254;28;20125;-75
2023/09/22 07:38:43;;;;;;;2.55;0.70;;;13.90;99.90;;;13.55;100.00;96514.94;4987708;28;20049;-76
2023/09/22 07:41:10;;;;;;;4.07;0.50;;;13.90;99.90;;;13.36;100.00;96513.63;4988018;28;20054;-75
2023/09/22 07:43:39;;;;;;;4.82;0.63;;;14.00;99.90;;;13.68;100.00;96512.25;4971256;28;20057;-75
2023/09/22 07:46:06;;;;;;;9.32;0.50;;;14.00;99.90;;;14.09;100.00;96522.28;4984708;28;20058;-75
2023/09/22 07:48:35;;;;;;;3.28;0.52;;;14.10;99.90;;;14.16;100.00;96512.22;4986682;28;20054;-75
2023/09/22 07:51:04;;;;;;;2.22;0.52;;;14.50;99.90;;;14.62;100.00;96511.44;4980860;28;20058;-76
2023/09/22 07:53:31;;;;;;;3.63;0.50;;;14.80;99.90;;;14.39;100.00;96507.91;4988069;28;20133;-75
2023/09/22 07:56:01;;;;;;;2.97;0.70;;;15.10;99.90;;;14.37;100.00;96517.66;5000253;28;20058;-75
2023/09/22 07:58:29;;;;;;;2.25;0.50;;;15.10;99.90;;;13.94;100.00;96515.59;4986712;28;20058;-75
2023/09/22 08:00:59;;;;;;;3.78;0.60;;;14.70;99.90;;;13.69;100.00;96535.63;4985090;28;20046;-75
2023/09/22 08:03:28;;;;;;;6.60;0.60;;;14.60;99.90;;;13.77;100.00;96529.84;5001498;28;20046;-75
2023/09/22 08:05:56;;;;;;;4.35;0.70;;;14.30;99.90;;;13.76;100.00;96547.28;4987420;28;20049;-75
2023/09/22 08:08:24;;;;;;;5.15;0.65;;;14.30;99.90;;;13.70;100.00;96542.50;4970798;28;20186;-75
2023/09/22 08:10:53;;;;;;;10.35;0.70;;;14.20;99.90;;;13.66;100.00;96546.28;4985308;28;20069;-75
2023/09/22 08:13:21;;;;;;;1.33;0.40;;;14.10;99.90;;;13.69;100.00;96550.44;4985790;28;20058;-75
2023/09/22 08:15:49;;;;;;;5.30;0.57;;;14.10;99.90;;;13.83;100.00;96539.84;4986275;28;20161;-75
2023/09/22 08:18:16;;;;;;;3.72;0.52;;;14.30;99.90;;;13.83;100.00;96539.03;4986203;28;20415;-75
2023/09/22 08:20:44;;;;;;;3.95;0.63;;;14.40;99.90;;;14.03;100.00;96538.41;4985864;28;20503;-75
2023/09/22 08:23:11;;;;;;;4.80;0.60;;;14.50;99.90;;;13.95;100.00;96540.72;4987299;28;20073;-75
2023/09/22 08:25:38;;;;;;;6.05;0.60;;;14.50;99.90;;;14.07;100.00;96544.22;4983550;28;20121;-76
2023/09/22 08:28:05;;;;;;;5.43;0.75;;;14.50;99.90;;;14.12;100.00;96547.34;4983703;28;20073;-76
2023/09/22 08:30:33;;;;;;;3.28;0.60;;;14.60;99.90;;;14.81;100.00;96534.38;4987572;28;20046;-75
2023/09/22 08:33:02;;;;;;;3.50;0.60;;;14.60;99.90;;;15.00;100.00;96539.84;4985103;28;20085;-76
2023/09/22 08:35:29;;;;;;;3.78;0.60;;;15.30;99.90;;;15.66;100.00;96536.47;4985531;28;20549;-76
2023/09/22 08:37:57;;;;;;;4.72;0.68;;;15.70;99.90;;;15.24;100.00;96512.78;4984679;28;20149;-75
2023/09/22 08:40:24;;;;;;;3.22;0.68;;;15.60;99.90;;;15.29;100.00;96520.25;4986195;28;20050;-76
2023/09/22 08:42:54;;;;;;;5.03;0.80;;;15.60;99.90;;;15.36;100.00;96535.31;4984486;28;20062;-76
2023/09/22 08:45:22;;;;;;;4.63;0.80;;;15.80;99.90;;;15.92;100.00;96525.72;4954684;28;20058;-76
2023/09/22 08:47:50;;;;;;;2.55;0.63;;;16.30;99.90;;;15.70;100.00;96511.72;4971003;28;20046;-75
2023/09/22 08:50:19;;;;;;;7.47;0.80;;;16.30;99.90;;;15.13;100.00;96524.06;4984236;28;20140;-76
2023/09/22 08:52:51;;;;;;;3.30;0.70;;;16.10;99.90;;;15.17;100.00;96532.50;4981320;28;20054;-76
2023/09/22 08:55:21;;;;;;;5.50;0.90;;;15.50;99.90;;;14.75;100.00;96527.81;4994953;28;20058;-75
2023/09/22 08:57:51;;;;;;;5.30;1.25;;;15.40;99.90;;;15.01;100.00;96530.25;4979990;28;20109;-75
2023/09/22 09:00:26;;;;;;;4.57;0.70;;;15.50;99.90;;;15.11;100.00;96533.78;4981942;28;20691;-75
2023/09/22 09:03:06;;;;;;;6.35;1.05;;;15.70;99.90;;;15.10;100.00;96541.75;4985154;28;20057;-76
2023/09/22 09:05:38;;;;;;;6.63;0.70;;;15.70;99.90;;;15.75;100.00;96545.41;4984280;28;20491;-75
2023/09/22 09:08:16;;;;;;;7.85;0.80;;;16.00;99.90;;;15.61;100.00;96544.69;4983449;28;20577;-75
2023/09/22 09:10:46;;;;;;;7.60;0.95;;;16.40;99.90;;;15.95;100.00;96543.81;4983716;28;20054;-76
2023/09/22 09:13:20;;;;;;;6.95;0.93;;;16.50;99.90;;;15.53;100.00;96547.09;4964872;28;20061;-75
2023/09/22 09:15:53;;;;;;;3.50;0.75;;;16.20;99.90;;;15.47;100.00;96545.78;4985919;28;20046;-74
2023/09/22 09:18:24;;;;;;;7.47;1.00;;;16.00;99.90;;;15.59;100.00;96551.81;4985697;28;20104;-77
2023/09/22 09:21:16;;;;;;;6.07;1.00;;;15.80;99.90;;;15.48;100.00;96555.28;4982726;28;20116;-75
2023/09/22 09:23:55;;;;;;;6.38;0.88;;;15.60;99.90;;;15.30;100.00;96546.25;4985440;28;20042;-75
2023/09/22 09:26:31;;;;;;;6.85;0.95;;;15.70;99.90;;;15.39;100.00;96550.75;4983247;28;20243;-75
2023/09/22 09:28:59;;;;;;;3.80;0.73;;;15.70;99.90;;;15.29;100.00;96547.22;4982035;28;20078;-74
2023/09/22 09:31:46;;;;;;;8.70;1.02;;;15.80;99.90;;;15.21;100.00;96553.06;4998888;28;20065;-75
2023/09/22 09:34:15;;;;;;;5.68;0.80;;;15.80;99.90;;;15.26;100.00;96542.25;4983333;28;20136;-74
2023/09/22 09:36:42;;;;;;;10.02;0.88;;;15.60;99.90;;;15.41;100.00;96542.81;4996604;28;20138;-75
2023/09/22 09:39:13;;;;;;;6.50;1.33;;;15.70;99.90;;;15.72;100.00;96533.41;4982989;28;20487;-75
2023/09/22 09:41:43;;;;;;;7.20;1.05;;;16.00;99.90;;;15.41;100.00;96545.41;4983003;28;20414;-75
2023/09/22 09:44:11;;;;;;;4.05;1.00;;;16.00;99.90;;;15.62;100.00;96542.88;4982029;28;20101;-76
2023/09/22 09:46:42;;;;;;;6.03;1.02;;;16.10;99.90;;;15.77;100.00;96546.94;4982281;28;20407;-74
2023/09/22 09:49:13;;;;;;;7.78;0.93;;;16.10;99.90;;;15.87;100.00;96534.78;4981357;28;20464;-73
2023/09/22 09:51:46;;;;;;;2.92;0.88;;;16.20;99.90;;;15.57;100.00;96529.34;4979668;28;20653;-73
2023/09/22 09:54:19;;;;;;;5.35;1.00;;;16.30;99.90;;;15.45;100.00;96534.59;4983088;28;20076;-72
2023/09/22 09:56:49;;;;;;;4.68;0.90;;;16.20;99.90;;;15.21;100.00;96545.22;4983820;28;20057;-73
2023/09/22 09:59:17;;;;;;;5.13;1.00;;;16.20;99.90;;;15.30;100.00;96524.50;4969296;28;20602;-73
2023/09/22 10:01:44;;;;;;;1.80;0.60;;;16.20;99.90;;;15.43;100.00;96536.50;4983860;28;20464;-74
2023/09/22 10:04:12;;;;;;;3.90;1.00;;;16.10;99.90;;;15.13;100.00;96531.91;4983178;28;20061;-74
2023/09/22 10:06:40;;;;;;;6.57;1.10;;;16.10;99.90;;;15.49;100.00;96527.34;4964789;28;20246;-74
2023/09/22 10:09:18;;;;;;;5.50;0.98;;;16.40;99.90;;;15.79;100.00;96528.50;4984399;28;20074;-73
2023/09/22 10:11:46;;;;;;;7.65;1.00;;;16.70;99.90;;;16.09;100.00;96526.00;4981335;28;20050;-74
2023/09/22 10:14:42;;;;;;;2.50;0.70;;;16.90;99.90;;;16.33;100.00;96526.75;4979089;28;20062;-74
2023/09/22 10:17:21;;;;;;;5.43;0.88;;;16.70;99.90;;;16.82;100.00;96526.13;4980637;28;20118;-74
2023/09/22 10:19:50;;;;;;;5.78;1.10;;;17.10;99.90;;;16.78;100.00;96534.34;4979340;28;20054;-74